createdAt,value
2016-09-10T00:01:37.527Z,956.05
2016-09-10T00:02:34.189Z,956.04
2016-09-10T00:03:28.909Z,956.03
2016-09-10T00:09:29.480Z,956.01
2016-09-10T00:10:27.199Z,955.98
2016-09-10T00:14:32.825Z,956.00
2016-09-10T00:15:24.714Z,956.01
2016-09-10T00:16:23.295Z,956.00
2016-09-10T00:17:37.201Z,955.97
2016-09-10T00:18:28.982Z,955.97
2016-09-10T00:19:26.410Z,956.01
2016-09-10T00:22:33.104Z,955.95
2016-09-10T00:28:27.033Z,955.99
2016-09-10T00:29:39.575Z,955.98
2016-09-10T00:31:24.406Z,955.99
2016-09-10T00:35:19.604Z,956.03
2016-09-10T00:37:23.410Z,956.02
2016-09-10T00:38:19.610Z,956.05
2016-09-10T00:40:28.634Z,956.03
2016-09-10T00:41:31.494Z,956.02
2016-09-10T00:43:24.450Z,956.03
2016-09-10T00:46:20.848Z,956.05
2016-09-10T00:50:23.521Z,956.06
2016-09-10T00:51:25.353Z,956.05
2016-09-10T00:52:33.992Z,956.04
2016-09-10T00:53:28.376Z,956.01
2016-09-10T00:54:31.068Z,956.06
2016-09-10T00:56:27.061Z,956.05
2016-09-10T00:57:38.116Z,956.05
2016-09-10T00:58:32.665Z,956.05
2016-09-10T01:04:23.733Z,956.01
2016-09-10T01:09:24.049Z,956.04
2016-09-10T01:12:28.263Z,956.09
2016-09-10T01:13:25.881Z,956.07
2016-09-10T01:17:28.367Z,956.04
2016-09-10T01:25:37.420Z,955.95
2016-09-10T01:32:19.938Z,955.91
2016-09-10T01:37:32.334Z,955.94
2016-09-10T01:38:34.674Z,955.96
2016-09-10T01:39:27.000Z,955.92
2016-09-10T01:40:27.211Z,955.94
2016-09-10T01:41:20.490Z,955.94
2016-09-10T01:44:28.877Z,955.93
2016-09-10T01:45:27.911Z,955.94
2016-09-10T01:46:24.611Z,955.92
2016-09-10T01:50:25.136Z,955.91
2016-09-10T01:51:25.474Z,955.95
2016-09-10T01:53:34.574Z,955.92
2016-09-10T01:55:34.993Z,955.90
2016-09-10T01:56:27.471Z,955.94
2016-09-10T01:57:26.391Z,955.90
2016-09-10T02:03:23.869Z,955.95
2016-09-10T02:08:27.196Z,955.96
2016-09-10T02:12:28.389Z,955.94
2016-09-10T02:14:32.983Z,955.93
2016-09-10T02:17:28.189Z,955.95
2016-09-10T02:26:30.622Z,955.93
2016-09-10T02:27:24.200Z,955.99
2016-09-10T02:28:24.034Z,955.94
2016-09-10T02:31:39.501Z,955.98
2016-09-10T02:53:22.871Z,955.85
2016-09-10T03:03:22.861Z,955.86
2016-09-10T03:08:25.805Z,955.92
2016-09-10T03:09:34.137Z,955.91
2016-09-10T03:12:34.494Z,955.89
2016-09-10T03:19:34.684Z,955.84
2016-09-10T03:31:23.234Z,955.87
2016-09-10T03:39:28.399Z,955.93
2016-09-10T03:45:27.385Z,955.94
2016-09-10T03:49:23.624Z,955.94
2016-09-10T03:54:22.807Z,955.96
2016-09-10T03:58:36.294Z,955.90
2016-09-10T04:01:26.307Z,955.92
2016-09-10T04:04:39.607Z,955.96
2016-09-10T04:06:24.400Z,955.96
2016-09-10T04:07:35.555Z,955.98
2016-09-10T04:08:28.484Z,956.02
2016-09-10T04:09:23.938Z,956.00
2016-09-10T04:12:32.605Z,956.04
2016-09-10T04:14:33.991Z,956.02
2016-09-10T04:15:21.600Z,956.00
2016-09-10T04:16:28.194Z,956.01
2016-09-10T04:17:26.357Z,956.00
2016-09-10T04:18:16.362Z,956.01
2016-09-10T04:19:30.998Z,956.02
2016-09-10T04:22:34.102Z,956.02
2016-09-10T04:23:28.007Z,956.00
2016-09-10T04:24:28.184Z,956.04
2016-09-10T04:28:33.903Z,956.04
2016-09-10T04:31:39.586Z,956.10
2016-09-10T04:32:22.528Z,956.14
2016-09-10T04:33:33.212Z,956.16
2016-09-10T04:34:25.528Z,956.16
2016-09-10T04:35:29.644Z,956.17
2016-09-10T04:36:25.340Z,956.17
2016-09-10T04:38:35.807Z,956.18
2016-09-10T04:43:30.155Z,956.18
2016-09-10T04:44:17.424Z,956.19
2016-09-10T04:46:18.174Z,956.18
2016-09-10T04:47:24.873Z,956.21
2016-09-10T04:49:19.803Z,956.18
2016-09-10T04:51:22.984Z,956.17
2016-09-10T04:52:33.419Z,956.15
2016-09-10T04:55:24.636Z,956.19
2016-09-10T05:05:26.994Z,956.23
2016-09-10T05:10:29.003Z,956.24
2016-09-10T05:13:30.273Z,956.22
2016-09-10T05:15:29.065Z,956.17
2016-09-10T05:23:23.662Z,956.20
2016-09-10T05:24:23.530Z,956.19
2016-09-10T05:26:24.812Z,956.18
2016-09-10T05:32:22.529Z,956.16
2016-09-10T05:35:28.043Z,956.17
2016-09-10T05:40:17.792Z,956.18
2016-09-10T05:47:18.811Z,956.08
2016-09-10T05:48:36.043Z,956.05
2016-09-10T05:50:17.617Z,956.06
2016-09-10T05:51:17.535Z,956.07
2016-09-10T05:53:23.474Z,956.05
2016-09-10T05:55:18.464Z,956.04
2016-09-10T05:57:28.638Z,956.05
2016-09-10T05:58:18.480Z,956.07
2016-09-10T06:02:18.243Z,956.07
2016-09-10T06:03:19.136Z,956.06
2016-09-10T06:04:26.733Z,956.09
2016-09-10T06:06:24.577Z,956.08
2016-09-10T06:07:19.788Z,956.07
2016-09-10T06:08:24.701Z,956.05
2016-09-10T06:09:30.625Z,956.10
2016-09-10T06:11:33.359Z,956.04
2016-09-10T06:12:25.066Z,956.06
2016-09-10T06:13:19.633Z,956.06
2016-09-10T06:16:24.537Z,956.08
2016-09-10T06:18:17.519Z,956.07
2016-09-10T06:19:24.059Z,956.10
2016-09-10T06:22:26.881Z,956.14
2016-09-10T06:23:23.842Z,956.15
2016-09-10T06:24:24.647Z,956.14
2016-09-10T06:25:22.207Z,956.12
2016-09-10T06:27:17.724Z,956.15
2016-09-10T06:28:18.545Z,956.20
2016-09-10T06:29:35.061Z,956.16
2016-09-10T06:30:29.228Z,956.15
2016-09-10T06:32:29.226Z,956.19
2016-09-10T06:34:36.975Z,956.21
2016-09-10T06:36:28.671Z,956.29
2016-09-10T06:38:17.713Z,956.29
2016-09-10T06:40:17.681Z,956.27
2016-09-10T06:43:23.600Z,956.30
2016-09-10T06:45:24.159Z,956.30
2016-09-10T06:46:17.725Z,956.35
2016-09-10T06:47:25.329Z,956.37
2016-09-10T06:49:17.917Z,956.34
2016-09-10T06:50:23.630Z,956.36
2016-09-10T06:53:32.365Z,956.36
2016-09-10T06:54:43.842Z,956.34
2016-09-10T06:55:18.693Z,956.35
2016-09-10T06:57:32.262Z,956.37
2016-09-10T06:59:33.708Z,956.31
2016-09-10T07:00:18.049Z,956.33
2016-09-10T07:01:31.686Z,956.35
2016-09-10T07:02:30.522Z,956.33
2016-09-10T07:03:32.305Z,956.33
2016-09-10T07:04:28.184Z,956.30
2016-09-10T07:05:39.037Z,956.28
2016-09-10T07:06:33.471Z,956.26
2016-09-10T07:07:26.851Z,956.26
2016-09-10T07:08:18.933Z,956.24
2016-09-10T07:09:27.890Z,956.30
2016-09-10T07:10:22.191Z,956.30
2016-09-10T07:11:26.541Z,956.28
2016-09-10T07:12:35.189Z,956.28
2016-09-10T07:13:33.288Z,956.29
2016-09-10T07:14:28.575Z,956.26
2016-09-10T07:15:28.178Z,956.25
2016-09-10T07:16:29.602Z,956.27
2016-09-10T07:17:23.564Z,956.28
2016-09-10T07:18:24.842Z,956.26
2016-09-10T07:19:26.809Z,956.29
2016-09-10T07:20:25.380Z,956.28
2016-09-10T07:21:37.899Z,956.28
2016-09-10T07:22:37.195Z,956.32
2016-09-10T07:23:31.188Z,956.33
2016-09-10T07:24:28.349Z,956.33
2016-09-10T07:25:26.883Z,956.34
2016-09-10T07:26:24.257Z,956.32
2016-09-10T07:27:23.449Z,956.36
2016-09-10T07:28:38.209Z,956.37
2016-09-10T07:30:28.146Z,956.39
2016-09-10T07:31:28.698Z,956.36
2016-09-10T07:32:27.855Z,956.38
2016-09-10T07:34:25.319Z,956.35
2016-09-10T07:35:37.331Z,956.34
2016-09-10T07:36:17.420Z,956.35
2016-09-10T07:37:36.846Z,956.36
2016-09-10T07:38:26.122Z,956.32
2016-09-10T07:39:24.340Z,956.31
2016-09-10T07:41:28.299Z,956.32
2016-09-10T07:43:22.854Z,956.32
2016-09-10T07:44:24.379Z,956.31
2016-09-10T07:46:17.578Z,956.34
2016-09-10T07:47:38.810Z,956.34
2016-09-10T07:48:29.183Z,956.33
2016-09-10T07:53:28.888Z,956.41
2016-09-10T07:54:32.278Z,956.42
2016-09-10T07:57:23.530Z,956.37
2016-09-10T07:59:17.732Z,956.40
2016-09-10T08:00:25.534Z,956.40
2016-09-10T08:03:29.383Z,956.47
2016-09-10T08:06:23.284Z,956.40
2016-09-10T08:08:38.659Z,956.37
2016-09-10T08:09:17.528Z,956.37
2016-09-10T08:10:28.793Z,956.35
2016-09-10T08:11:28.700Z,956.34
2016-09-10T08:12:22.884Z,956.33
2016-09-10T08:18:29.115Z,956.40
2016-09-10T08:19:29.052Z,956.39
2016-09-10T08:22:17.688Z,956.42
2016-09-10T08:23:23.359Z,956.42
2016-09-10T08:24:27.489Z,956.40
2016-09-10T08:25:29.464Z,956.41
2016-09-10T08:26:39.918Z,956.41
2016-09-10T08:27:26.562Z,956.40
2016-09-10T08:28:18.733Z,956.38
2016-09-10T08:29:30.627Z,956.39
2016-09-10T08:30:30.352Z,956.37
2016-09-10T08:32:22.600Z,956.38
2016-09-10T08:35:29.497Z,956.34
2016-09-10T08:37:17.482Z,956.26
2016-09-10T08:38:17.629Z,956.25
2016-09-10T08:39:26.202Z,956.24
2016-09-10T08:40:16.848Z,956.24
2016-09-10T08:41:14.544Z,956.28
2016-09-10T08:42:31.700Z,956.30
2016-09-10T08:44:22.064Z,956.29
2016-09-10T08:45:24.727Z,956.29
2016-09-10T08:47:26.932Z,956.30
2016-09-10T08:48:23.729Z,956.32
2016-09-10T08:49:18.721Z,956.33
2016-09-10T08:51:34.299Z,956.32
2016-09-10T08:53:23.422Z,956.35
2016-09-10T08:54:38.481Z,956.38
2016-09-10T08:56:23.671Z,956.40
2016-09-10T08:57:26.297Z,956.38
2016-09-10T08:59:29.891Z,956.38
2016-09-10T09:00:29.057Z,956.37
2016-09-10T09:03:23.496Z,956.40
2016-09-10T09:05:28.189Z,956.37
2016-09-10T09:06:31.725Z,956.39
2016-09-10T09:07:29.159Z,956.38
2016-09-10T09:08:23.708Z,956.38
2016-09-10T09:10:33.511Z,956.34
2016-09-10T09:13:29.964Z,956.30
2016-09-10T09:15:28.869Z,956.31
2016-09-10T09:16:36.731Z,956.36
2016-09-10T09:18:18.243Z,956.31
2016-09-10T09:20:19.048Z,956.26
2016-09-10T09:24:28.342Z,956.23
2016-09-10T09:25:38.338Z,956.24
2016-09-10T09:26:31.353Z,956.24
2016-09-10T09:27:35.019Z,956.21
2016-09-10T09:28:23.529Z,956.26
2016-09-10T09:30:25.707Z,956.25
2016-09-10T09:31:26.518Z,956.23
2016-09-10T09:32:18.489Z,956.22
2016-09-10T09:35:30.000Z,956.21
2016-09-10T09:36:27.639Z,956.19
2016-09-10T09:42:19.771Z,956.15
2016-09-10T09:43:22.520Z,956.17
2016-09-10T09:44:25.191Z,956.14
2016-09-10T09:46:23.447Z,956.16
2016-09-10T09:47:25.756Z,956.15
2016-09-10T09:48:22.978Z,956.15
2016-09-10T09:50:33.956Z,956.14
2016-09-10T09:51:38.038Z,956.09
2016-09-10T09:52:36.071Z,956.05
2016-09-10T09:53:35.458Z,956.07
2016-09-10T09:54:17.660Z,956.05
2016-09-10T09:55:27.517Z,956.09
2016-09-10T09:56:31.724Z,956.04
2016-09-10T09:57:34.775Z,956.07
2016-09-10T09:59:27.715Z,956.04
2016-09-10T10:01:33.118Z,955.98
2016-09-10T10:02:28.470Z,956.00
2016-09-10T10:03:33.595Z,956.03
2016-09-10T10:05:32.159Z,956.10
2016-09-10T10:06:34.209Z,956.04
2016-09-10T10:07:35.946Z,956.01
2016-09-10T10:08:30.232Z,956.04
2016-09-10T10:09:29.044Z,955.99
2016-09-10T10:12:28.188Z,955.97
2016-09-10T10:14:33.571Z,956.01
2016-09-10T10:15:29.169Z,956.01
2016-09-10T10:16:29.228Z,956.00
2016-09-10T10:17:18.328Z,955.98
2016-09-10T10:19:28.519Z,955.98
2016-09-10T10:22:35.222Z,955.91
2016-09-10T10:23:36.169Z,955.90
2016-09-10T10:24:28.738Z,955.91
2016-09-10T10:28:28.551Z,955.84
2016-09-10T10:29:35.190Z,955.86
2016-09-10T10:32:28.467Z,955.83
2016-09-10T10:34:36.236Z,955.79
2016-09-10T10:35:24.631Z,955.83
2016-09-10T10:36:29.824Z,955.78
2016-09-10T10:37:32.434Z,955.80
2016-09-10T10:38:18.371Z,955.81
2016-09-10T10:39:34.179Z,955.78
2016-09-10T10:40:23.929Z,955.81
2016-09-10T10:41:38.439Z,955.77
2016-09-10T10:44:26.941Z,955.76
2016-09-10T10:45:28.196Z,955.77
2016-09-10T10:46:17.430Z,955.76
2016-09-10T10:47:22.349Z,955.74
2016-09-10T10:48:39.501Z,955.75
2016-09-10T10:49:34.148Z,955.72
2016-09-10T10:50:29.170Z,955.72
2016-09-10T10:52:18.283Z,955.70
2016-09-10T10:53:18.034Z,955.71
2016-09-10T10:54:32.878Z,955.70
2016-09-10T10:55:16.882Z,955.71
2016-09-10T10:56:29.238Z,955.73
2016-09-10T10:57:17.764Z,955.72
2016-09-10T10:58:24.065Z,955.72
2016-09-10T10:59:32.700Z,955.71
2016-09-10T11:00:17.158Z,955.73
2016-09-10T11:01:29.559Z,955.72
2016-09-10T11:03:28.881Z,955.73
2016-09-10T11:04:28.364Z,955.74
2016-09-10T11:05:16.639Z,955.71
2016-09-10T11:06:22.988Z,955.69
2016-09-10T11:08:22.881Z,955.70
2016-09-10T11:09:17.073Z,955.67
2016-09-10T11:10:30.264Z,955.67
2016-09-10T11:11:23.987Z,955.66
2016-09-10T11:13:40.218Z,955.68
2016-09-10T11:14:34.063Z,955.60
2016-09-10T11:15:25.655Z,955.62
2016-09-10T11:16:18.176Z,955.62
2016-09-10T11:17:16.347Z,955.65
2016-09-10T11:18:17.228Z,955.64
2016-09-10T11:19:28.475Z,955.60
2016-09-10T11:20:34.066Z,955.61
2016-09-10T11:21:22.741Z,955.62
2016-09-10T11:22:23.632Z,955.60
2016-09-10T11:23:28.999Z,955.62
2016-09-10T11:24:18.456Z,955.61
2016-09-10T11:25:17.432Z,955.58
2016-09-10T11:26:38.389Z,955.59
2016-09-10T11:30:18.558Z,955.55
2016-09-10T11:31:28.245Z,955.54
2016-09-10T11:34:29.132Z,955.51
2016-09-10T11:35:18.144Z,955.50
2016-09-10T11:36:26.739Z,955.55
2016-09-10T11:37:11.043Z,955.52
2016-09-10T11:38:11.450Z,955.51
2016-09-10T11:39:10.593Z,955.52
2016-09-10T11:40:17.538Z,955.52
2016-09-10T11:41:20.021Z,955.51
2016-09-10T11:42:23.666Z,955.47
2016-09-10T11:44:23.403Z,955.44
2016-09-10T11:45:18.211Z,955.41
2016-09-10T11:47:17.797Z,955.39
2016-09-10T11:48:32.972Z,955.41
2016-09-10T11:49:17.305Z,955.41
2016-09-10T11:51:35.160Z,955.38
2016-09-10T11:52:34.522Z,955.35
2016-09-10T11:53:22.605Z,955.37
2016-09-10T11:54:32.902Z,955.34
2016-09-10T11:55:31.865Z,955.34
2016-09-10T11:56:35.376Z,955.33
2016-09-10T11:57:20.465Z,955.33
2016-09-10T11:58:22.704Z,955.32
2016-09-10T11:59:29.286Z,955.33
2016-09-10T12:00:12.961Z,955.29
2016-09-10T12:01:26.076Z,955.35
2016-09-10T12:02:17.134Z,955.32
2016-09-10T12:03:18.952Z,955.35
2016-09-10T12:06:18.159Z,955.31
2016-09-10T12:07:17.570Z,955.33
2016-09-10T12:08:30.331Z,955.34
2016-09-10T12:09:24.292Z,955.33
2016-09-10T12:10:17.179Z,955.21
2016-09-10T12:11:17.293Z,955.23
2016-09-10T12:12:22.951Z,955.19
2016-09-10T12:13:22.436Z,955.22
2016-09-10T12:14:23.346Z,955.14
2016-09-10T12:16:34.712Z,955.15
2016-09-10T12:17:18.127Z,955.11
2016-09-10T12:18:24.368Z,955.11
2016-09-10T12:19:17.913Z,955.10
2016-09-10T12:20:23.704Z,955.10
2016-09-10T12:21:17.856Z,955.13
2016-09-10T12:22:28.373Z,955.12
2016-09-10T12:23:18.239Z,955.12
2016-09-10T12:24:29.868Z,955.07
2016-09-10T12:25:25.310Z,955.08
2016-09-10T12:26:18.418Z,955.07
2016-09-10T12:27:27.093Z,955.05
2016-09-10T12:28:18.265Z,955.03
2016-09-10T12:29:18.681Z,955.00
2016-09-10T12:30:33.949Z,954.99
2016-09-10T12:31:23.675Z,955.02
2016-09-10T12:32:27.734Z,955.01
2016-09-10T12:33:26.785Z,955.05
2016-09-10T12:34:19.736Z,955.04
2016-09-10T12:35:19.150Z,955.05
2016-09-10T12:36:18.948Z,955.06
2016-09-10T12:37:18.978Z,955.06
2016-09-10T12:38:18.968Z,955.04
2016-09-10T12:42:18.622Z,955.01
2016-09-10T12:43:29.711Z,955.05
2016-09-10T12:44:35.385Z,955.07
2016-09-10T12:45:16.941Z,955.00
2016-09-10T12:46:27.914Z,954.99
2016-09-10T12:47:18.408Z,954.98
2016-09-10T12:48:19.248Z,954.99
2016-09-10T12:49:23.700Z,954.99
2016-09-10T12:50:23.528Z,954.93
2016-09-10T12:51:17.822Z,954.92
2016-09-10T12:52:18.417Z,954.92
2016-09-10T12:53:18.538Z,954.95
2016-09-10T12:54:17.973Z,954.91
2016-09-10T12:55:13.300Z,954.88
2016-09-10T12:56:17.295Z,954.93
2016-09-10T12:57:23.410Z,954.94
2016-09-10T12:58:17.712Z,954.87
2016-09-10T12:59:29.749Z,954.87
2016-09-10T13:01:21.555Z,954.84
2016-09-10T13:02:18.552Z,954.84
2016-09-10T13:04:17.462Z,954.87
2016-09-10T13:05:24.444Z,954.82
2016-09-10T13:06:23.327Z,954.84
2016-09-10T13:07:20.274Z,954.81
2016-09-10T13:08:18.486Z,954.81
2016-09-10T13:09:16.163Z,954.78
2016-09-10T13:10:24.437Z,954.79
2016-09-10T13:11:18.756Z,954.83
2016-09-10T13:12:26.810Z,954.82
2016-09-10T13:14:20.644Z,954.80
2016-09-10T13:16:18.565Z,954.77
2016-09-10T13:17:18.306Z,954.80
2016-09-10T13:18:18.328Z,954.78
2016-09-10T13:19:17.745Z,954.77
2016-09-10T13:20:17.644Z,954.74
2016-09-10T13:21:17.545Z,954.72
2016-09-10T13:23:30.067Z,954.72
2016-09-10T13:24:20.069Z,954.77
2016-09-10T13:25:23.788Z,954.73
2016-09-10T13:26:19.915Z,954.69
2016-09-10T13:27:18.755Z,954.73
2016-09-10T13:28:25.094Z,954.69
2016-09-10T13:29:31.273Z,954.66
2016-09-10T13:30:18.249Z,954.71
2016-09-10T13:31:19.013Z,954.67
2016-09-10T13:32:29.153Z,954.70
2016-09-10T13:35:19.083Z,954.71
2016-09-10T13:36:17.918Z,954.72
2016-09-10T13:37:25.340Z,954.70
2016-09-10T13:38:25.699Z,954.68
2016-09-10T13:39:17.801Z,954.65
2016-09-10T13:41:18.103Z,954.68
2016-09-10T13:42:22.940Z,954.69
2016-09-10T13:43:28.460Z,954.64
2016-09-10T13:45:23.762Z,954.68
2016-09-10T13:49:19.394Z,954.70
2016-09-10T13:50:25.243Z,954.66
2016-09-10T13:51:29.365Z,954.65
2016-09-10T13:52:21.044Z,954.71
2016-09-10T13:54:30.093Z,954.64
2016-09-10T13:56:25.717Z,954.63
2016-09-10T13:57:24.430Z,954.66
2016-09-10T13:58:18.475Z,954.60
2016-09-10T14:00:29.507Z,954.55
2016-09-10T14:01:23.425Z,954.58
2016-09-10T14:03:22.694Z,954.60
2016-09-10T14:05:20.136Z,954.62
2016-09-10T14:06:29.502Z,954.59
2016-09-10T14:07:16.727Z,954.59
2016-09-10T14:10:23.688Z,954.58
2016-09-10T14:13:19.846Z,954.57
2016-09-10T14:15:19.079Z,954.53
2016-09-10T14:16:20.185Z,954.53
2016-09-10T14:18:27.979Z,954.52
2016-09-10T14:19:17.942Z,954.53
2016-09-10T14:20:21.060Z,954.53
2016-09-10T14:21:28.403Z,954.54
2016-09-10T14:22:24.168Z,954.55
2016-09-10T14:23:24.673Z,954.51
2016-09-10T14:26:23.272Z,954.50
2016-09-10T14:27:18.634Z,954.52
2016-09-10T14:28:18.379Z,954.49
2016-09-10T14:29:21.182Z,954.49
2016-09-10T14:30:24.783Z,954.47
2016-09-10T14:31:18.883Z,954.50
2016-09-10T14:32:20.193Z,954.46
2016-09-10T14:34:18.496Z,954.47
2016-09-10T14:35:18.828Z,954.47
2016-09-10T14:36:18.388Z,954.48
2016-09-10T14:37:27.373Z,954.49
2016-09-10T14:38:20.170Z,954.49
2016-09-10T14:39:23.038Z,954.51
2016-09-10T14:40:18.495Z,954.49
2016-09-10T14:42:17.502Z,954.47
2016-09-10T14:43:24.540Z,954.48
2016-09-10T14:45:26.260Z,954.40
2016-09-10T14:46:20.111Z,954.38
2016-09-10T14:47:20.133Z,954.44
2016-09-10T14:48:25.523Z,954.41
2016-09-10T14:49:23.240Z,954.44
2016-09-10T14:50:39.393Z,954.44
2016-09-10T14:52:19.075Z,954.43
2016-09-10T14:54:19.787Z,954.42
2016-09-10T14:56:19.016Z,954.38
2016-09-10T14:57:30.399Z,954.36
2016-09-10T15:00:17.705Z,954.31
2016-09-10T15:01:21.367Z,954.32
2016-09-10T15:02:17.204Z,954.35
2016-09-10T15:03:20.168Z,954.32
2016-09-10T15:04:18.721Z,954.33
2016-09-10T15:05:18.330Z,954.34
2016-09-10T15:07:17.930Z,954.33
2016-09-10T15:08:21.047Z,954.29
2016-09-10T15:09:18.341Z,954.31
2016-09-10T15:10:23.373Z,954.25
2016-09-10T15:11:18.523Z,954.25
2016-09-10T15:12:32.740Z,954.25
2016-09-10T15:14:23.507Z,954.27
2016-09-10T15:17:18.707Z,954.27
2016-09-10T15:18:22.177Z,954.26
2016-09-10T15:19:18.026Z,954.25
2016-09-10T15:20:19.549Z,954.30
2016-09-10T15:21:24.707Z,954.26
2016-09-10T15:22:19.038Z,954.25
2016-09-10T15:23:28.925Z,954.21
2016-09-10T15:24:17.622Z,954.26
2016-09-10T15:25:18.043Z,954.27
2016-09-10T15:26:18.825Z,954.23
2016-09-10T15:27:23.440Z,954.24
2016-09-10T15:29:25.317Z,954.25
2016-09-10T15:30:22.194Z,954.24
2016-09-10T15:31:19.180Z,954.20
2016-09-10T15:32:17.930Z,954.23
2016-09-10T15:33:18.163Z,954.22
2016-09-10T15:34:23.602Z,954.20
2016-09-10T15:35:18.327Z,954.24
2016-09-10T15:36:24.852Z,954.22
2016-09-10T15:38:28.198Z,954.18
2016-09-10T15:39:20.526Z,954.22
2016-09-10T15:40:17.675Z,954.24
2016-09-10T15:41:35.785Z,954.23
2016-09-10T15:42:17.891Z,954.18
2016-09-10T15:43:21.128Z,954.21
2016-09-10T15:44:19.393Z,954.23
2016-09-10T15:45:22.811Z,954.21
2016-09-10T15:46:17.448Z,954.23
2016-09-10T15:49:23.408Z,954.20
2016-09-10T15:50:19.063Z,954.20
2016-09-10T15:51:24.171Z,954.24
2016-09-10T15:52:23.826Z,954.21
2016-09-10T15:53:18.226Z,954.22
2016-09-10T15:55:17.717Z,954.18
2016-09-10T15:56:12.819Z,954.22
2016-09-10T15:57:18.117Z,954.22
2016-09-10T15:58:19.843Z,954.20
2016-09-10T15:59:21.280Z,954.25
2016-09-10T16:00:22.172Z,954.20
2016-09-10T16:04:29.122Z,954.16
2016-09-10T16:05:28.447Z,954.14
2016-09-10T16:06:18.766Z,954.15
2016-09-10T16:07:27.520Z,954.13
2016-09-10T16:08:22.503Z,954.20
2016-09-10T16:09:18.783Z,954.21
2016-09-10T16:10:17.496Z,954.19
2016-09-10T16:11:19.327Z,954.19
2016-09-10T16:12:18.118Z,954.19
2016-09-10T16:13:23.369Z,954.16
2016-09-10T16:14:17.248Z,954.22
2016-09-10T16:15:22.633Z,954.18
2016-09-10T16:16:23.231Z,954.16
2016-09-10T16:17:18.172Z,954.15
2016-09-10T16:18:33.916Z,954.18
2016-09-10T16:19:18.998Z,954.19
2016-09-10T16:21:17.589Z,954.21
2016-09-10T16:22:33.868Z,954.19
2016-09-10T16:23:24.551Z,954.21
2016-09-10T16:24:30.157Z,954.21
2016-09-10T16:25:12.918Z,954.17
2016-09-10T16:26:18.257Z,954.23
2016-09-10T16:27:18.371Z,954.24
2016-09-10T16:28:23.284Z,954.26
2016-09-10T16:29:24.718Z,954.21
2016-09-10T16:31:28.565Z,954.28
2016-09-10T16:32:23.647Z,954.22
2016-09-10T16:36:27.840Z,954.21
2016-09-10T16:37:23.506Z,954.19
2016-09-10T16:38:17.987Z,954.19
2016-09-10T16:39:22.873Z,954.24
2016-09-10T16:40:53.996Z,954.22
2016-09-10T16:41:27.797Z,954.20
2016-09-10T16:42:30.525Z,954.24
2016-09-10T16:43:20.147Z,954.20
2016-09-10T16:44:28.339Z,954.20
2016-09-10T16:45:30.223Z,954.24
2016-09-10T16:46:27.612Z,954.28
2016-09-10T16:47:22.718Z,954.26
2016-09-10T16:48:18.016Z,954.25
2016-09-10T16:49:22.522Z,954.29
2016-09-10T16:50:23.415Z,954.28
2016-09-10T16:52:26.585Z,954.28
2016-09-10T16:53:30.025Z,954.26
2016-09-10T16:54:29.620Z,954.32
2016-09-10T16:55:18.673Z,954.31
2016-09-10T16:56:28.162Z,954.33
2016-09-10T16:58:23.155Z,954.41
2016-09-10T16:59:23.043Z,954.42
2016-09-10T17:00:23.625Z,954.39
2016-09-10T17:01:24.663Z,954.39
2016-09-10T17:02:33.514Z,954.43
2016-09-10T17:03:28.570Z,954.45
2016-09-10T17:04:17.190Z,954.42
2016-09-10T17:08:31.996Z,954.48
2016-09-10T17:09:23.593Z,954.47
2016-09-10T17:11:43.668Z,954.49
2016-09-10T17:12:33.475Z,954.51
2016-09-10T17:13:33.638Z,954.52
2016-09-10T17:14:28.582Z,954.55
2016-09-10T17:17:24.896Z,954.54
2016-09-10T17:18:27.204Z,954.56
2016-09-10T17:19:17.467Z,954.53
2016-09-10T17:20:21.830Z,954.55
2016-09-10T17:21:30.583Z,954.56
2016-09-10T17:22:24.013Z,954.56
2016-09-10T17:23:24.367Z,954.58
2016-09-10T17:24:17.684Z,954.55
2016-09-10T17:25:37.321Z,954.60
2016-09-10T17:29:18.039Z,954.57
2016-09-10T17:30:18.374Z,954.59
2016-09-10T17:32:28.528Z,954.60
2016-09-10T17:34:26.185Z,954.59
2016-09-10T17:36:25.958Z,954.62
2016-09-10T17:37:26.250Z,954.59
2016-09-10T17:38:18.616Z,954.57
2016-09-10T17:42:18.378Z,954.63
2016-09-10T17:44:18.253Z,954.68
2016-09-10T17:47:19.362Z,954.73
2016-09-10T17:48:22.592Z,954.69
2016-09-10T17:49:24.628Z,954.67
2016-09-10T17:50:25.595Z,954.67
2016-09-10T17:52:28.589Z,954.64
2016-09-10T17:54:20.023Z,954.66
2016-09-10T17:55:19.587Z,954.67
2016-09-10T17:56:27.074Z,954.70
2016-09-10T17:57:18.267Z,954.68
2016-09-10T17:58:22.145Z,954.70
2016-09-10T17:59:34.049Z,954.68
2016-09-10T18:00:28.636Z,954.66
2016-09-10T18:02:29.040Z,954.72
2016-09-10T18:04:23.008Z,954.71
2016-09-10T18:05:27.798Z,954.73
2016-09-10T18:06:23.883Z,954.75
2016-09-10T18:07:17.598Z,954.78
2016-09-10T18:08:27.015Z,954.76
2016-09-10T18:12:18.379Z,954.83
2016-09-10T18:14:31.179Z,954.80
2016-09-10T18:15:29.073Z,954.82
2016-09-10T18:17:39.191Z,954.86
2016-09-10T18:18:26.323Z,954.88
2016-09-10T18:19:18.007Z,954.92
2016-09-10T18:21:31.149Z,954.92
2016-09-10T18:22:27.585Z,955.01
2016-09-10T18:23:17.223Z,954.93
2016-09-10T18:25:38.168Z,954.97
2016-09-10T18:26:33.952Z,954.95
2016-09-10T18:27:27.997Z,955.06
2016-09-10T18:28:12.179Z,954.99
2016-09-10T18:29:29.271Z,954.97
2016-09-10T18:31:28.180Z,954.99
2016-09-10T18:32:28.178Z,955.02
2016-09-10T18:33:23.275Z,955.01
2016-09-10T18:37:23.269Z,955.07
2016-09-10T18:38:33.238Z,955.10
2016-09-10T18:39:22.159Z,955.08
2016-09-10T18:40:23.559Z,955.09
2016-09-10T18:42:27.800Z,955.10
2016-09-10T18:43:24.547Z,955.09
2016-09-10T18:44:29.423Z,955.08
2016-09-10T18:45:24.737Z,955.11
2016-09-10T18:46:30.189Z,955.10
2016-09-10T18:47:27.628Z,955.07
2016-09-10T18:50:28.703Z,955.08
2016-09-10T18:52:27.128Z,955.08
2016-09-10T18:53:26.946Z,955.10
2016-09-10T18:54:37.166Z,955.10
2016-09-10T18:55:33.178Z,955.14
2016-09-10T18:56:26.982Z,955.11
2016-09-10T18:58:24.317Z,955.09
2016-09-10T18:59:24.652Z,955.10
2016-09-10T19:00:27.647Z,955.10
2016-09-10T19:01:17.407Z,955.08
2016-09-10T19:03:28.320Z,955.06
2016-09-10T19:04:22.638Z,955.07
2016-09-10T19:05:17.321Z,955.05
2016-09-10T19:07:22.285Z,955.05
2016-09-10T19:08:33.291Z,955.05
2016-09-10T19:11:23.083Z,955.02
2016-09-10T19:12:17.450Z,955.06
2016-09-10T19:13:16.683Z,955.04
2016-09-10T19:14:19.045Z,955.02
2016-09-10T19:15:18.549Z,955.05
2016-09-10T19:16:29.811Z,955.03
2016-09-10T19:17:18.067Z,955.01
2016-09-10T19:20:18.267Z,955.00
2016-09-10T19:20:18.276Z,955.02
2016-09-10T19:20:29.393Z,955.01
2016-09-10T19:21:20.795Z,955.01
2016-09-10T19:22:26.391Z,955.00
2016-09-10T19:24:34.433Z,955.05
2016-09-10T19:25:28.708Z,955.03
2016-09-10T19:27:23.642Z,955.04
2016-09-10T19:28:24.700Z,955.07
2016-09-10T19:31:37.789Z,955.12
2016-09-10T19:32:18.863Z,955.13
2016-09-10T19:33:41.667Z,955.17
2016-09-10T19:34:19.675Z,955.13
2016-09-10T19:38:32.783Z,955.18
2016-09-10T19:40:30.755Z,955.17
2016-09-10T19:41:34.164Z,955.14
2016-09-10T19:42:23.545Z,955.20
2016-09-10T19:43:24.399Z,955.16
2016-09-10T19:46:25.632Z,955.18
2016-09-10T19:47:20.920Z,955.18
2016-09-10T19:49:19.862Z,955.21
2016-09-10T19:50:19.934Z,955.21
2016-09-10T19:51:27.974Z,955.25
2016-09-10T19:52:25.785Z,955.25
2016-09-10T19:53:28.311Z,955.28
2016-09-10T19:56:39.998Z,955.29
2016-09-10T19:58:29.240Z,955.32
2016-09-10T19:59:25.496Z,955.34
2016-09-10T20:00:25.334Z,955.35
2016-09-10T20:01:24.266Z,955.34
2016-09-10T20:02:24.794Z,955.31
2016-09-10T20:05:20.987Z,955.34
2016-09-10T20:06:25.441Z,955.36
2016-09-10T20:07:25.903Z,955.38
2016-09-10T20:08:30.586Z,955.35
2016-09-10T20:09:27.347Z,955.41
2016-09-10T20:12:18.983Z,955.42